createdAt,value
2018-05-13T00:00:14.664Z,93.70
2018-05-13T00:02:40.758Z,93.90
2018-05-13T00:05:09.467Z,93.90
2018-05-13T00:07:35.632Z,94.00
2018-05-13T00:10:01.709Z,93.90
2018-05-13T00:12:27.810Z,94.10
2018-05-13T00:14:54.643Z,94.20
2018-05-13T00:17:20.717Z,94.10
2018-05-13T00:19:46.823Z,94.20
2018-05-13T00:22:12.914Z,94.20
2018-05-13T00:24:39.013Z,94.20
2018-05-13T00:27:05.094Z,94.50
2018-05-13T00:29:31.189Z,94.50
2018-05-13T00:31:58.262Z,94.50
2018-05-13T00:34:25.094Z,94.50
2018-05-13T00:36:51.932Z,94.50
2018-05-13T00:39:18.794Z,94.60
2018-05-13T00:41:44.880Z,94.60
2018-05-13T00:44:10.983Z,94.60
2018-05-13T00:46:37.066Z,94.50
2018-05-13T00:49:22.120Z,94.30
2018-05-13T00:51:48.215Z,94.30
2018-05-13T00:54:32.861Z,94.60
2018-05-13T00:56:58.959Z,94.10
2018-05-13T00:59:25.059Z,94.10
2018-05-13T01:01:51.910Z,94.20
2018-05-13T01:04:18.758Z,94.30
2018-05-13T01:06:44.858Z,94.20
2018-05-13T01:09:11.501Z,94.30
2018-05-13T01:11:37.597Z,94.40
2018-05-13T01:14:03.699Z,94.50
2018-05-13T01:16:29.790Z,94.50
2018-05-13T01:18:56.626Z,94.70
2018-05-13T01:21:22.723Z,94.60
2018-05-13T01:23:48.834Z,94.70
2018-05-13T01:26:14.930Z,94.80
2018-05-13T01:28:41.798Z,94.90
2018-05-13T01:31:07.890Z,94.90
2018-05-13T01:33:34.721Z,94.90
2018-05-13T01:36:01.558Z,94.70
2018-05-13T01:38:27.641Z,95.00
2018-05-13T01:40:54.509Z,95.00
2018-05-13T01:43:20.605Z,95.10
2018-05-13T01:45:46.711Z,95.10
2018-05-13T01:48:12.805Z,95.10
2018-05-13T01:50:38.910Z,95.20
2018-05-13T01:53:05.009Z,95.20
2018-05-13T01:55:31.114Z,95.20
2018-05-13T01:57:57.208Z,95.20
2018-05-13T02:00:23.300Z,95.30
2018-05-13T02:02:49.397Z,95.30
2018-05-13T02:05:15.498Z,95.40
2018-05-13T02:07:42.373Z,95.70
2018-05-13T02:10:08.486Z,95.40
2018-05-13T02:12:34.581Z,95.40
2018-05-13T02:15:00.682Z,95.40
2018-05-13T02:17:26.786Z,95.50
2018-05-13T02:19:52.894Z,95.60
2018-05-13T02:22:18.983Z,95.60
2018-05-13T02:24:45.828Z,95.70
2018-05-13T02:27:11.911Z,95.70
2018-05-13T02:29:37.996Z,95.80
2018-05-13T02:32:04.835Z,95.80
2018-05-13T02:34:31.680Z,95.70
2018-05-13T02:36:58.531Z,95.80
2018-05-13T02:39:25.374Z,95.80
2018-05-13T02:41:52.241Z,95.80
2018-05-13T02:44:18.346Z,95.80
2018-05-13T02:46:44.459Z,96.00
2018-05-13T02:49:12.019Z,96.00
2018-05-13T02:51:38.874Z,95.90
2018-05-13T02:54:04.983Z,95.90
2018-05-13T02:56:31.842Z,96.00
2018-05-13T02:58:58.677Z,96.20
2018-05-13T03:01:25.539Z,96.20
2018-05-13T03:03:51.698Z,96.10
2018-05-13T03:06:17.811Z,96.10
2018-05-13T03:08:43.901Z,96.10
2018-05-13T03:11:10.744Z,96.20
2018-05-13T03:13:37.585Z,96.20
2018-05-13T03:16:03.682Z,96.20
2018-05-13T03:18:29.777Z,96.30
2018-05-13T03:20:55.881Z,96.40
2018-05-13T03:23:21.977Z,96.40
2018-05-13T03:25:48.080Z,96.40
2018-05-13T03:28:14.177Z,96.30
2018-05-13T03:30:40.274Z,96.20
2018-05-13T03:33:07.109Z,96.20
2018-05-13T03:35:33.936Z,96.30
2018-05-13T03:38:00.043Z,96.20
2018-05-13T03:40:26.146Z,96.30
2018-05-13T03:42:52.245Z,96.30
2018-05-13T03:45:18.339Z,96.40
2018-05-13T03:47:44.452Z,96.40
2018-05-13T03:50:10.549Z,96.50
2018-05-13T03:52:36.641Z,96.40
2018-05-13T03:55:03.487Z,96.30
2018-05-13T03:57:30.327Z,96.30
2018-05-13T03:59:57.166Z,96.30
2018-05-13T04:02:24.086Z,96.30
2018-05-13T04:04:50.126Z,96.30
2018-05-13T04:07:16.967Z,96.30
2018-05-13T04:10:02.569Z,96.20
2018-05-13T04:12:47.497Z,96.20
2018-05-13T04:15:22.674Z,96.20
2018-05-13T04:17:48.773Z,96.20
2018-05-13T04:20:14.874Z,96.10
2018-05-13T04:22:40.965Z,96.10
2018-05-13T04:25:07.049Z,96.00
2018-05-13T04:27:33.146Z,95.90
2018-05-13T04:29:59.247Z,95.80
2018-05-13T04:32:25.334Z,95.70
2018-05-13T04:34:52.183Z,95.60
2018-05-13T04:37:19.022Z,95.60
2018-05-13T04:39:45.866Z,95.50
2018-05-13T04:42:12.695Z,95.50
2018-05-13T04:44:39.379Z,95.50
2018-05-13T04:47:05.463Z,95.40
2018-05-13T04:49:31.561Z,95.40
2018-05-13T04:51:57.646Z,95.30
2018-05-13T04:54:23.749Z,95.20
2018-05-13T04:56:49.839Z,95.20
2018-05-13T04:59:15.939Z,95.20
2018-05-13T05:01:42.025Z,95.10
2018-05-13T05:04:09.517Z,94.00
2018-05-13T05:06:35.604Z,94.00
2018-05-13T05:09:02.591Z,89.30
2018-05-13T05:11:28.610Z,88.50
2018-05-13T05:13:54.718Z,84.20
2018-05-13T05:16:21.573Z,75.40
2018-05-13T05:18:47.678Z,75.30
2018-05-13T05:21:14.509Z,68.70
2018-05-13T05:23:40.601Z,68.60
2018-05-13T05:26:06.689Z,66.00
2018-05-13T05:28:32.818Z,62.90
2018-05-13T05:30:58.914Z,59.70
2018-05-13T05:33:25.026Z,57.60
2018-05-13T05:35:51.201Z,55.70
2018-05-13T05:38:17.242Z,54.60
2018-05-13T05:40:43.340Z,53.60
2018-05-13T05:43:09.433Z,50.90
2018-05-13T05:45:35.541Z,49.90
2018-05-13T05:48:01.633Z,48.70
2018-05-13T05:50:27.747Z,47.10
2018-05-13T05:52:53.837Z,46.50
2018-05-13T05:55:19.936Z,45.00
2018-05-13T05:57:46.006Z,44.20
2018-05-13T06:00:12.838Z,43.40
2018-05-13T06:02:38.921Z,43.40
2018-05-13T06:05:05.022Z,42.80
2018-05-13T06:07:31.110Z,41.80
2018-05-13T06:09:57.203Z,41.40
2018-05-13T06:12:23.285Z,40.70
2018-05-13T06:14:50.126Z,39.10
2018-05-13T06:17:16.975Z,38.40
2018-05-13T06:19:43.142Z,38.40
2018-05-13T06:22:09.167Z,38.40
2018-05-13T06:24:35.258Z,38.00
2018-05-13T06:27:01.347Z,37.80
2018-05-13T06:29:27.443Z,37.40
2018-05-13T06:31:53.603Z,37.50
2018-05-13T06:37:33.379Z,37.00
2018-05-13T06:39:59.465Z,36.40
2018-05-13T06:42:25.543Z,36.40
2018-05-13T06:44:52.381Z,36.40
2018-05-13T06:47:19.207Z,36.10
2018-05-13T06:49:45.301Z,36.10
2018-05-13T06:52:11.386Z,36.00
2018-05-13T06:54:37.489Z,36.10
2018-05-13T06:57:03.587Z,35.70
2018-05-13T06:59:29.685Z,35.00
2018-05-13T07:01:55.794Z,34.50
2018-05-13T07:04:25.301Z,34.60
2018-05-13T07:06:52.003Z,34.40
2018-05-13T07:09:18.755Z,34.50
2018-05-13T07:11:45.607Z,34.70
2018-05-13T07:14:12.437Z,34.80
2018-05-13T07:16:38.546Z,34.80
2018-05-13T07:19:04.637Z,34.10
2018-05-13T07:21:31.469Z,32.90
2018-05-13T07:23:57.576Z,33.00
2018-05-13T07:26:24.417Z,33.00
2018-05-13T07:28:53.364Z,33.20
2018-05-13T07:31:19.516Z,33.20
2018-05-13T07:33:45.585Z,33.40
2018-05-13T07:36:11.682Z,32.80
2018-05-13T07:38:38.520Z,32.70
2018-05-13T07:41:04.621Z,32.70
2018-05-13T07:43:30.790Z,32.40
2018-05-13T07:45:56.845Z,32.50
2018-05-13T07:48:22.945Z,33.00
2018-05-13T07:50:49.118Z,33.50
2018-05-13T07:53:15.181Z,33.40
2018-05-13T07:55:42.035Z,33.50
2018-05-13T07:58:08.885Z,32.70
2018-05-13T08:00:34.993Z,32.70
2018-05-13T08:03:01.838Z,32.40
2018-05-13T08:05:28.685Z,32.40
2018-05-13T08:08:02.686Z,32.80
2018-05-13T08:10:29.525Z,33.10
2018-05-13T08:12:55.629Z,33.00
2018-05-13T08:15:21.736Z,33.30
2018-05-13T08:17:47.833Z,32.30
2018-05-13T08:20:13.953Z,32.90
2018-05-13T08:22:40.787Z,32.60
2018-05-13T08:25:07.634Z,32.00
2018-05-13T08:27:34.486Z,32.60
2018-05-13T08:30:00.592Z,32.60
2018-05-13T08:32:27.445Z,32.80
2018-05-13T08:34:54.272Z,32.60
2018-05-13T08:37:20.379Z,32.50
2018-05-13T08:39:46.468Z,33.20
2018-05-13T08:42:12.569Z,32.50
2018-05-13T08:44:39.401Z,32.40
2018-05-13T08:47:06.255Z,32.10
2018-05-13T08:49:32.349Z,32.10
2018-05-13T08:51:58.460Z,32.30
2018-05-13T08:54:24.570Z,32.00
2018-05-13T08:56:50.683Z,31.70
2018-05-13T08:59:16.785Z,32.20
2018-05-13T09:01:42.897Z,32.10
2018-05-13T09:04:09.740Z,32.00
2018-05-13T09:06:36.584Z,31.70
2018-05-13T09:09:03.422Z,31.70
2018-05-13T09:11:30.258Z,31.50
2018-05-13T09:13:56.367Z,31.50
2018-05-13T09:16:22.483Z,31.20
2018-05-13T09:18:48.599Z,30.70
2018-05-13T09:21:14.680Z,30.70
2018-05-13T09:23:41.516Z,32.00
2018-05-13T09:26:08.359Z,33.00
2018-05-13T09:28:35.210Z,33.70
2018-05-13T09:31:02.653Z,34.40
2018-05-13T09:33:28.767Z,34.40
2018-05-13T09:35:54.862Z,35.20
2018-05-13T09:38:20.969Z,36.30
2018-05-13T09:40:47.065Z,37.10
2018-05-13T09:43:13.918Z,36.30
2018-05-13T09:45:40.759Z,35.90
2018-05-13T09:48:07.613Z,35.70
2018-05-13T09:50:33.700Z,35.70
2018-05-13T09:52:59.812Z,35.90
2018-05-13T09:55:25.924Z,36.10
2018-05-13T09:57:52.022Z,35.40
2018-05-13T10:00:18.126Z,33.80
2018-05-13T10:02:44.965Z,32.50
2018-05-13T10:05:11.809Z,32.70
2018-05-13T10:07:38.645Z,31.50
2018-05-13T10:10:04.741Z,31.50
2018-05-13T10:12:30.842Z,30.20
2018-05-13T10:14:56.950Z,29.60
2018-05-13T10:17:23.058Z,29.30
2018-05-13T10:19:49.901Z,27.90
2018-05-13T10:22:16.750Z,27.80
2018-05-13T10:24:43.585Z,28.20
2018-05-13T10:27:10.474Z,28.30
2018-05-13T10:29:37.278Z,28.00
2018-05-13T10:32:04.110Z,28.00
2018-05-13T10:34:30.975Z,27.80
2018-05-13T10:36:57.072Z,27.80
2018-05-13T10:39:23.180Z,27.70
2018-05-13T10:41:53.141Z,27.30
2018-05-13T10:44:19.987Z,27.60
2018-05-13T10:46:46.090Z,27.60
2018-05-13T10:49:12.956Z,26.90
2018-05-13T10:51:39.044Z,26.90
2018-05-13T10:57:06.779Z,26.90
2018-05-13T10:59:32.918Z,26.90
2018-05-13T11:01:59.018Z,26.50
2018-05-13T11:04:25.117Z,26.90
2018-05-13T11:06:51.205Z,26.90
2018-05-13T11:09:17.303Z,26.70
2018-05-13T11:11:43.409Z,26.90
2018-05-13T11:14:10.249Z,26.40
2018-05-13T11:16:37.098Z,26.80
2018-05-13T11:19:03.936Z,27.40
2018-05-13T11:21:30.795Z,27.10
2018-05-13T11:23:56.895Z,27.10
2018-05-13T11:26:23.009Z,27.60
2018-05-13T11:28:49.105Z,27.50
2018-05-13T11:31:15.197Z,27.60
2018-05-13T11:33:41.315Z,27.70
2018-05-13T11:36:08.163Z,27.80
2018-05-13T11:38:34.275Z,27.80
2018-05-13T11:41:01.113Z,27.80
2018-05-13T11:43:27.211Z,27.80
2018-05-13T11:45:53.309Z,28.40
2018-05-13T11:48:19.417Z,28.40
2018-05-13T11:50:45.529Z,28.20
2018-05-13T11:53:12.374Z,28.30
2018-05-13T11:55:39.218Z,28.70
2018-05-13T11:58:06.071Z,29.00
2018-05-13T12:00:32.200Z,29.00
2018-05-13T12:02:58.301Z,29.40
2018-05-13T12:05:25.142Z,29.10
2018-05-13T12:07:51.228Z,28.90
2018-05-13T12:10:17.329Z,28.30
2018-05-13T12:12:43.435Z,28.30
2018-05-13T12:15:10.349Z,28.00
2018-05-13T12:20:42.737Z,28.10
2018-05-13T12:23:08.830Z,28.40
2018-05-13T12:25:43.172Z,28.10
2018-05-13T12:28:09.268Z,28.20
2018-05-13T12:30:35.361Z,28.20
2018-05-13T12:33:01.453Z,27.70
2018-05-13T12:35:27.558Z,27.50
2018-05-13T12:37:53.661Z,27.50
2018-05-13T12:40:19.774Z,26.60
2018-05-13T12:42:46.610Z,26.80
2018-05-13T12:45:13.479Z,26.40
2018-05-13T12:47:39.579Z,26.40
2018-05-13T12:50:05.689Z,26.60
2018-05-13T12:52:31.780Z,26.30
2018-05-13T12:54:57.881Z,26.30
2018-05-13T12:57:23.986Z,26.00
2018-05-13T12:59:50.816Z,26.00
2018-05-13T13:02:16.968Z,25.90
2018-05-13T13:04:43.048Z,25.90
2018-05-13T13:07:09.152Z,25.70
2018-05-13T13:09:35.250Z,25.80
2018-05-13T13:12:01.341Z,25.80
2018-05-13T13:14:27.440Z,25.80
2018-05-13T13:16:53.539Z,25.50
2018-05-13T13:19:20.360Z,25.70
2018-05-13T13:21:46.495Z,26.10
2018-05-13T13:24:12.590Z,25.70
2018-05-13T13:26:38.686Z,25.80
2018-05-13T13:29:04.786Z,25.90
2018-05-13T13:31:30.887Z,25.30
2018-05-13T13:33:57.729Z,25.50
2018-05-13T13:36:24.564Z,25.90
2018-05-13T13:38:51.398Z,25.70
2018-05-13T13:41:17.502Z,25.60
2018-05-13T13:43:43.602Z,25.90
2018-05-13T13:46:09.711Z,25.80
2018-05-13T13:48:35.860Z,25.70
2018-05-13T13:51:01.953Z,25.80
2018-05-13T13:53:28.152Z,25.80
2018-05-13T13:55:54.199Z,25.80
2018-05-13T13:58:21.028Z,26.00
2018-05-13T14:00:47.873Z,25.70
2018-05-13T14:03:14.717Z,25.40
2018-05-13T14:05:41.570Z,25.40
2018-05-13T14:08:08.410Z,26.10
2018-05-13T14:10:35.265Z,26.20
2018-05-13T14:13:01.360Z,26.20
2018-05-13T14:15:27.464Z,25.50
2018-05-13T14:17:53.567Z,25.90
2018-05-13T14:20:19.766Z,26.30
2018-05-13T14:22:45.787Z,26.20
2018-05-13T14:25:12.641Z,26.80
2018-05-13T14:27:38.736Z,26.70
2018-05-13T14:30:04.838Z,26.40
2018-05-13T14:32:31.666Z,26.10
2018-05-13T14:34:57.767Z,26.10
2018-05-13T14:37:23.870Z,26.50
2018-05-13T14:39:50.781Z,26.40
2018-05-13T14:42:16.832Z,26.40
2018-05-13T14:44:43.657Z,26.20
2018-05-13T14:47:09.757Z,26.20
2018-05-13T14:49:35.860Z,26.10
2018-05-13T14:52:01.974Z,25.90
2018-05-13T14:54:28.066Z,26.40
2018-05-13T14:56:54.170Z,26.40
2018-05-13T14:59:20.268Z,26.50
2018-05-13T15:01:46.375Z,26.60
2018-05-13T15:04:12.479Z,26.70
2018-05-13T15:06:39.317Z,27.10
2018-05-13T15:09:05.404Z,27.00
2018-05-13T15:11:31.510Z,27.20
2018-05-13T15:13:57.598Z,27.10
2018-05-13T15:16:23.697Z,27.00
2018-05-13T15:18:49.781Z,26.70
2018-05-13T15:21:15.881Z,26.40
2018-05-13T15:23:42.771Z,27.60
2018-05-13T15:26:08.907Z,27.50
2018-05-13T15:28:35.005Z,27.60
2018-05-13T15:31:01.097Z,27.80
2018-05-13T15:33:27.212Z,27.40
2018-05-13T15:35:54.000Z,27.40
2018-05-13T15:38:20.115Z,27.40
2018-05-13T15:40:46.207Z,27.40
2018-05-13T15:43:12.413Z,27.20
2018-05-13T15:45:38.399Z,27.20
2018-05-13T15:48:04.506Z,27.20
2018-05-13T15:50:31.363Z,28.20
2018-05-13T15:52:57.475Z,28.20
2018-05-13T15:55:24.321Z,28.40
2018-05-13T15:57:51.166Z,28.60
2018-05-13T16:00:18.002Z,28.40
2018-05-13T16:02:44.846Z,28.70
2018-05-13T16:05:11.684Z,28.70
2018-05-13T16:07:38.541Z,29.00
2018-05-13T16:10:05.378Z,29.30
2018-05-13T16:12:32.202Z,29.50
2018-05-13T16:14:58.298Z,29.50
2018-05-13T16:17:24.407Z,29.40
2018-05-13T16:19:50.518Z,29.00
2018-05-13T16:22:16.621Z,29.30
2018-05-13T16:24:43.480Z,29.80
2018-05-13T16:27:09.580Z,29.80
2018-05-13T16:29:36.425Z,30.60
2018-05-13T16:32:02.513Z,30.20
2018-05-13T16:34:28.609Z,30.50
2018-05-13T16:36:54.714Z,30.20
2018-05-13T16:39:21.568Z,30.30
2018-05-13T16:41:47.666Z,30.20
2018-05-13T16:44:13.756Z,30.40
2018-05-13T16:46:39.856Z,30.50
2018-05-13T16:49:05.958Z,30.70
2018-05-13T16:51:32.812Z,31.60
2018-05-13T16:53:58.978Z,31.50
2018-05-13T16:56:25.103Z,31.90
2018-05-13T16:58:51.202Z,31.90
2018-05-13T17:01:17.311Z,32.40
2018-05-13T17:03:44.159Z,32.80
2018-05-13T17:06:10.274Z,32.80
2018-05-13T17:08:37.115Z,33.30
2018-05-13T17:11:03.977Z,33.50
2018-05-13T17:13:30.078Z,33.50
2018-05-13T17:15:57.404Z,33.80
2018-05-13T17:18:23.510Z,34.20
2018-05-13T17:20:49.602Z,34.20
2018-05-13T17:23:16.443Z,34.70
2018-05-13T17:25:43.296Z,35.10
2018-05-13T17:28:16.333Z,35.10
2018-05-13T17:30:42.438Z,35.10
2018-05-13T17:33:08.538Z,35.20
2018-05-13T17:35:34.628Z,35.20
2018-05-13T17:38:01.813Z,35.40
2018-05-13T17:40:27.905Z,35.60
2018-05-13T17:42:54.005Z,35.80
2018-05-13T17:45:20.089Z,36.00
2018-05-13T17:47:46.219Z,36.40
2018-05-13T17:50:12.295Z,36.50
2018-05-13T17:52:38.398Z,36.70
2018-05-13T17:55:04.489Z,36.90
2018-05-13T17:57:31.364Z,37.30
2018-05-13T17:59:58.815Z,37.30
2018-05-13T18:02:24.949Z,37.50
2018-05-13T18:04:51.034Z,37.80
2018-05-13T18:07:17.892Z,38.20
2018-05-13T18:09:44.001Z,38.10
2018-05-13T18:12:10.833Z,38.90
2018-05-13T18:14:36.951Z,38.80
2018-05-13T18:17:03.058Z,39.00
2018-05-13T18:19:29.177Z,39.30
2018-05-13T18:21:55.269Z,39.40
2018-05-13T18:24:21.393Z,39.60
2018-05-13T18:26:48.217Z,40.70
2018-05-13T18:29:15.084Z,40.80
2018-05-13T18:31:41.197Z,40.80
2018-05-13T18:34:07.321Z,41.10
2018-05-13T18:36:34.173Z,41.60
2018-05-13T18:39:00.308Z,41.50
2018-05-13T18:41:26.399Z,42.00
2018-05-13T18:43:52.509Z,42.40
2018-05-13T18:46:18.614Z,43.40
2018-05-13T18:48:45.733Z,43.60
2018-05-13T18:51:13.916Z,43.20
2018-05-13T18:53:40.035Z,43.50
2018-05-13T18:56:06.138Z,43.70
2018-05-13T18:58:41.538Z,44.40
2018-05-13T19:01:07.641Z,44.40
2018-05-13T19:03:33.741Z,44.70
2018-05-13T19:06:00.591Z,45.10
2018-05-13T19:08:27.270Z,45.10
2018-05-13T19:10:53.386Z,45.20
2018-05-13T19:13:19.515Z,45.70
2018-05-13T19:15:45.614Z,45.90
2018-05-13T19:18:11.708Z,45.90
2018-05-13T19:20:37.829Z,46.10
2018-05-13T19:23:03.933Z,46.50
2018-05-13T19:25:30.050Z,46.80
2018-05-13T19:27:56.163Z,47.00
2018-05-13T19:30:22.269Z,47.20
2018-05-13T19:32:48.357Z,47.90
2018-05-13T19:35:14.471Z,48.10
2018-05-13T19:37:40.573Z,48.10
2018-05-13T19:40:06.693Z,48.10
2018-05-13T19:42:34.871Z,48.20
2018-05-13T19:45:00.981Z,48.40
2018-05-13T19:47:27.170Z,48.40
2018-05-13T19:49:53.256Z,48.70
2018-05-13T19:52:19.333Z,49.20
2018-05-13T19:54:46.779Z,49.40
2018-05-13T19:57:12.947Z,49.40
2018-05-13T19:59:39.066Z,49.30
2018-05-13T20:02:05.162Z,49.40
2018-05-13T20:04:32.009Z,49.60
2018-05-13T20:07:00.920Z,49.50
2018-05-13T20:09:27.055Z,49.50
2018-05-13T20:11:53.101Z,49.50
2018-05-13T20:14:19.185Z,49.80
2018-05-13T20:16:46.091Z,50.30
2018-05-13T20:19:12.153Z,50.20
2018-05-13T20:21:39.025Z,51.20
2018-05-13T20:24:05.100Z,51.10
2018-05-13T20:26:31.197Z,51.50
2018-05-13T20:28:57.274Z,52.10
2018-05-13T20:31:24.131Z,53.40
2018-05-13T20:33:50.217Z,53.30
2018-05-13T20:36:16.315Z,53.70
2018-05-13T20:38:42.407Z,54.20
2018-05-13T20:41:08.507Z,54.80
2018-05-13T20:43:34.606Z,55.20
2018-05-13T20:46:00.708Z,55.50
2018-05-13T20:48:26.788Z,55.80
2018-05-13T20:50:53.621Z,56.60
2018-05-13T20:53:19.710Z,56.60
2018-05-13T20:55:45.838Z,56.90
2018-05-13T20:58:12.682Z,57.30
2018-05-13T21:00:38.775Z,57.30
2018-05-13T21:03:04.867Z,57.40
2018-05-13T21:05:30.975Z,57.90
2018-05-13T21:07:57.809Z,58.50
2018-05-13T21:10:23.929Z,58.50
2018-05-13T21:12:50.023Z,58.70
2018-05-13T21:15:16.116Z,58.70
2018-05-13T21:17:42.241Z,58.80
2018-05-13T21:20:08.327Z,59.10
2018-05-13T21:22:34.413Z,59.40
2018-05-13T21:25:02.286Z,60.20
2018-05-13T21:27:28.377Z,60.20
2018-05-13T21:32:56.214Z,60.70
2018-05-13T21:38:55.360Z,62.10
2018-05-13T21:41:55.078Z,62.20
2018-05-13T21:44:25.770Z,62.80
2018-05-13T21:46:51.893Z,63.10
2018-05-13T21:49:18.728Z,63.40
2018-05-13T21:51:48.953Z,63.90
2018-05-13T21:54:15.789Z,63.80
2018-05-13T21:56:42.647Z,63.90
2018-05-13T21:59:08.754Z,63.90
2018-05-13T22:01:35.617Z,63.90
2018-05-13T22:04:22.413Z,63.90
2018-05-13T22:06:49.263Z,64.20
2018-05-13T22:09:16.093Z,64.90
2018-05-13T22:11:42.961Z,64.80
2018-05-13T22:14:09.066Z,64.70
2018-05-13T22:16:35.163Z,64.60
2018-05-13T22:19:01.281Z,65.00
2018-05-13T22:21:27.380Z,65.10
2018-05-13T22:23:53.499Z,65.10
2018-05-13T22:26:19.590Z,65.60
2018-05-13T22:28:45.696Z,66.10
2018-05-13T22:31:11.788Z,66.10
2018-05-13T22:33:37.885Z,66.30
2018-05-13T22:36:03.985Z,66.70
2018-05-13T22:38:30.090Z,66.90
2018-05-13T22:40:56.202Z,67.30
2018-05-13T22:43:22.307Z,67.90
2018-05-13T22:45:48.419Z,68.50
2018-05-13T22:48:14.529Z,68.70
2018-05-13T22:50:41.362Z,69.70
2018-05-13T22:53:07.465Z,69.60
2018-05-13T22:55:33.562Z,70.00
2018-05-13T22:57:59.663Z,70.10
2018-05-13T23:00:26.481Z,70.20
2018-05-13T23:02:52.581Z,70.20
2018-05-13T23:05:18.746Z,70.30
2018-05-13T23:07:44.782Z,70.70
2018-05-13T23:10:11.600Z,70.80
2018-05-13T23:12:37.713Z,70.80
2018-05-13T23:15:03.809Z,71.00
2018-05-13T23:17:29.898Z,71.10
2018-05-13T23:19:56.721Z,71.30
2018-05-13T23:22:33.885Z,71.20
2018-05-13T23:24:59.983Z,71.30
2018-05-13T23:27:26.077Z,71.70
2018-05-13T23:29:52.918Z,72.00
2018-05-13T23:32:19.753Z,71.90
2018-05-13T23:34:46.577Z,71.80
2018-05-13T23:37:12.669Z,71.80
2018-05-13T23:39:38.767Z,71.90
2018-05-13T23:42:04.845Z,72.10
2018-05-13T23:44:30.928Z,72.40
2018-05-13T23:46:57.005Z,72.50
2018-05-13T23:49:23.101Z,72.80
2018-05-13T23:51:49.181Z,72.90
2018-05-13T23:54:16.049Z,73.20
2018-05-13T23:56:42.188Z,73.20
2018-05-13T23:59:08.287Z,73.50
